sensor_id;sensor_type;location;lat;lon;timestamp;P1;durP1;ratioP1;P2;durP2;ratioP2
39698;SDS011;25372;50.582;12.250;2022-09-13T00:05:01;1.23;;;0.98;;
39698;SDS011;25372;50.582;12.250;2022-09-13T00:15:22;1.48;;;1.38;;
39698;SDS011;25372;50.582;12.250;2022-09-13T00:25:44;2.58;;;1.92;;
39698;SDS011;25372;50.582;12.250;2022-09-13T00:36:06;1.63;;;1.17;;
39698;SDS011;25372;50.582;12.250;2022-09-13T00:46:33;2.30;;;1.60;;
39698;SDS011;25372;50.582;12.250;2022-09-13T00:56:57;1.65;;;1.35;;
39698;SDS011;25372;50.582;12.250;2022-09-13T01:07:23;1.30;;;1.20;;
39698;SDS011;25372;50.582;12.250;2022-09-13T01:17:44;1.20;;;1.10;;
39698;SDS011;25372;50.582;12.250;2022-09-13T01:28:17;1.40;;;1.25;;
39698;SDS011;25372;50.582;12.250;2022-09-13T01:38:57;4.25;;;1.58;;
39698;SDS011;25372;50.582;12.250;2022-09-13T01:49:24;1.63;;;1.52;;
39698;SDS011;25372;50.582;12.250;2022-09-13T01:59:55;2.55;;;1.48;;
39698;SDS011;25372;50.582;12.250;2022-09-13T02:10:20;2.35;;;1.30;;
39698;SDS011;25372;50.582;12.250;2022-09-13T02:20:47;3.40;;;1.60;;
39698;SDS011;25372;50.582;12.250;2022-09-13T02:31:11;2.25;;;1.65;;
39698;SDS011;25372;50.582;12.250;2022-09-13T02:41:36;2.92;;;1.30;;
39698;SDS011;25372;50.582;12.250;2022-09-13T02:52:06;1.98;;;1.80;;
39698;SDS011;25372;50.582;12.250;2022-09-13T03:02:36;2.78;;;1.92;;
39698;SDS011;25372;50.582;12.250;2022-09-13T03:13:04;1.33;;;1.23;;
39698;SDS011;25372;50.582;12.250;2022-09-13T03:23:57;2.85;;;1.67;;
39698;SDS011;25372;50.582;12.250;2022-09-13T03:34:30;1.95;;;1.65;;
39698;SDS011;25372;50.582;12.250;2022-09-13T03:44:56;2.25;;;1.67;;
39698;SDS011;25372;50.582;12.250;2022-09-13T03:55:19;1.63;;;1.50;;
39698;SDS011;25372;50.582;12.250;2022-09-13T04:05:43;1.55;;;1.10;;
39698;SDS011;25372;50.582;12.250;2022-09-13T04:16:05;3.17;;;2.20;;
39698;SDS011;25372;50.582;12.250;2022-09-13T04:26:29;2.13;;;1.70;;
39698;SDS011;25372;50.582;12.250;2022-09-13T04:36:50;3.42;;;1.65;;
39698;SDS011;25372;50.582;12.250;2022-09-13T04:47:13;2.22;;;1.95;;
39698;SDS011;25372;50.582;12.250;2022-09-13T04:57:34;2.08;;;1.83;;
39698;SDS011;25372;50.582;12.250;2022-09-13T05:07:56;2.38;;;1.92;;
39698;SDS011;25372;50.582;12.250;2022-09-13T05:18:16;1.85;;;1.13;;
39698;SDS011;25372;50.582;12.250;2022-09-13T05:28:38;2.60;;;2.20;;
39698;SDS011;25372;50.582;12.250;2022-09-13T05:38:59;1.88;;;1.42;;
39698;SDS011;25372;50.582;12.250;2022-09-13T05:49:21;4.57;;;2.38;;
39698;SDS011;25372;50.582;12.250;2022-09-13T05:59:42;3.30;;;2.15;;
39698;SDS011;25372;50.582;12.250;2022-09-13T06:10:05;4.32;;;2.05;;
39698;SDS011;25372;50.582;12.250;2022-09-13T06:20:26;2.20;;;1.73;;
39698;SDS011;25372;50.582;12.250;2022-09-13T06:30:48;1.75;;;1.48;;
39698;SDS011;25372;50.582;12.250;2022-09-13T06:41:10;2.45;;;1.65;;
39698;SDS011;25372;50.582;12.250;2022-09-13T06:51:34;1.15;;;1.10;;
39698;SDS011;25372;50.582;12.250;2022-09-13T07:01:55;2.85;;;1.90;;
39698;SDS011;25372;50.582;12.250;2022-09-13T07:12:17;7.32;;;2.67;;
39698;SDS011;25372;50.582;12.250;2022-09-13T07:22:38;2.63;;;1.35;;
39698;SDS011;25372;50.582;12.250;2022-09-13T07:33:00;4.30;;;1.73;;
39698;SDS011;25372;50.582;12.250;2022-09-13T07:43:21;2.28;;;1.17;;
39698;SDS011;25372;50.582;12.250;2022-09-13T07:53:44;3.03;;;1.77;;
39698;SDS011;25372;50.582;12.250;2022-09-13T08:04:06;1.73;;;1.45;;
39698;SDS011;25372;50.582;12.250;2022-09-13T08:14:29;1.40;;;1.25;;
39698;SDS011;25372;50.582;12.250;2022-09-13T08:24:50;3.92;;;1.98;;
39698;SDS011;25372;50.582;12.250;2022-09-13T08:35:12;2.72;;;1.85;;
39698;SDS011;25372;50.582;12.250;2022-09-13T08:45:33;3.55;;;2.28;;
39698;SDS011;25372;50.582;12.250;2022-09-13T08:55:57;2.90;;;1.83;;
39698;SDS011;25372;50.582;12.250;2022-09-13T09:06:23;4.10;;;2.35;;
39698;SDS011;25372;50.582;12.250;2022-09-13T09:16:46;3.88;;;2.13;;
39698;SDS011;25372;50.582;12.250;2022-09-13T09:27:12;4.10;;;1.73;;
39698;SDS011;25372;50.582;12.250;2022-09-13T09:37:36;1.05;;;1.02;;
39698;SDS011;25372;50.582;12.250;2022-09-13T09:47:59;1.10;;;0.80;;
39698;SDS011;25372;50.582;12.250;2022-09-13T09:58:39;1.25;;;1.15;;
39698;SDS011;25372;50.582;12.250;2022-09-13T10:09:03;1.83;;;1.10;;
39698;SDS011;25372;50.582;12.250;2022-09-13T10:19:26;1.77;;;1.00;;
39698;SDS011;25372;50.582;12.250;2022-09-13T10:29:47;1.33;;;1.23;;
39698;SDS011;25372;50.582;12.250;2022-09-13T10:40:18;1.13;;;0.98;;
39698;SDS011;25372;50.582;12.250;2022-09-13T10:50:59;1.10;;;1.00;;
39698;SDS011;25372;50.582;12.250;2022-09-13T11:01:30;0.70;;;0.70;;
39698;SDS011;25372;50.582;12.250;2022-09-13T11:12:04;0.75;;;0.75;;
39698;SDS011;25372;50.582;12.250;2022-09-13T11:22:43;0.85;;;0.85;;
39698;SDS011;25372;50.582;12.250;2022-09-13T11:33:23;0.65;;;0.65;;
39698;SDS011;25372;50.582;12.250;2022-09-13T11:43:59;1.45;;;1.27;;
39698;SDS011;25372;50.582;12.250;2022-09-13T11:54:39;1.75;;;1.35;;
39698;SDS011;25372;50.582;12.250;2022-09-13T12:05:12;1.45;;;1.25;;
39698;SDS011;25372;50.582;12.250;2022-09-13T12:15:40;0.70;;;0.70;;
39698;SDS011;25372;50.582;12.250;2022-09-13T12:26:06;0.77;;;0.60;;
39698;SDS011;25372;50.582;12.250;2022-09-13T12:36:33;1.25;;;0.73;;
39698;SDS011;25372;50.582;12.250;2022-09-13T12:47:18;0.40;;;0.40;;
39698;SDS011;25372;50.582;12.250;2022-09-13T12:57:58;0.70;;;0.70;;
39698;SDS011;25372;50.582;12.250;2022-09-13T13:08:30;0.80;;;0.80;;
39698;SDS011;25372;50.582;12.250;2022-09-13T13:18:54;0.95;;;0.60;;
39698;SDS011;25372;50.582;12.250;2022-09-13T13:29:17;0.52;;;0.50;;
39698;SDS011;25372;50.582;12.250;2022-09-13T13:39:41;1.17;;;0.85;;
39698;SDS011;25372;50.582;12.250;2022-09-13T13:50:11;0.77;;;0.70;;
39698;SDS011;25372;50.582;12.250;2022-09-13T14:00:34;0.50;;;0.50;;
39698;SDS011;25372;50.582;12.250;2022-09-13T14:11:09;0.60;;;0.57;;
39698;SDS011;25372;50.582;12.250;2022-09-13T14:21:40;0.50;;;0.50;;
39698;SDS011;25372;50.582;12.250;2022-09-13T14:32:04;0.60;;;0.60;;
39698;SDS011;25372;50.582;12.250;2022-09-13T14:42:41;0.52;;;0.52;;
39698;SDS011;25372;50.582;12.250;2022-09-13T14:53:04;0.50;;;0.50;;
39698;SDS011;25372;50.582;12.250;2022-09-13T15:03:27;1.40;;;0.80;;
39698;SDS011;25372;50.582;12.250;2022-09-13T15:14:00;1.35;;;0.68;;
39698;SDS011;25372;50.582;12.250;2022-09-13T15:24:24;0.50;;;0.50;;
39698;SDS011;25372;50.582;12.250;2022-09-13T15:34:49;0.98;;;0.80;;
39698;SDS011;25372;50.582;12.250;2022-09-13T15:45:11;1.00;;;0.90;;
39698;SDS011;25372;50.582;12.250;2022-09-13T15:55:33;1.33;;;0.90;;
39698;SDS011;25372;50.582;12.250;2022-09-13T16:05:54;0.80;;;0.80;;
39698;SDS011;25372;50.582;12.250;2022-09-13T16:16:16;2.38;;;1.10;;
39698;SDS011;25372;50.582;12.250;2022-09-13T16:26:37;0.70;;;0.70;;
39698;SDS011;25372;50.582;12.250;2022-09-13T16:37:00;0.70;;;0.70;;
39698;SDS011;25372;50.582;12.250;2022-09-13T16:47:22;1.23;;;1.10;;
39698;SDS011;25372;50.582;12.250;2022-09-13T16:57:44;1.23;;;0.90;;
39698;SDS011;25372;50.582;12.250;2022-09-13T17:08:08;0.90;;;0.87;;
39698;SDS011;25372;50.582;12.250;2022-09-13T17:18:30;1.27;;;0.98;;
39698;SDS011;25372;50.582;12.250;2022-09-13T17:28:51;0.85;;;0.85;;
39698;SDS011;25372;50.582;12.250;2022-09-13T17:39:13;1.23;;;0.98;;
39698;SDS011;25372;50.582;12.250;2022-09-13T17:49:34;0.75;;;0.75;;
39698;SDS011;25372;50.582;12.250;2022-09-13T17:59:55;0.70;;;0.70;;
39698;SDS011;25372;50.582;12.250;2022-09-13T18:10:16;0.63;;;0.60;;
39698;SDS011;25372;50.582;12.250;2022-09-13T18:20:43;1.10;;;0.80;;
39698;SDS011;25372;50.582;12.250;2022-09-13T18:31:06;0.82;;;0.82;;
39698;SDS011;25372;50.582;12.250;2022-09-13T18:41:30;1.30;;;0.90;;
39698;SDS011;25372;50.582;12.250;2022-09-13T18:51:52;1.03;;;0.80;;
39698;SDS011;25372;50.582;12.250;2022-09-13T19:02:15;1.08;;;0.98;;
39698;SDS011;25372;50.582;12.250;2022-09-13T19:12:35;1.13;;;0.63;;
39698;SDS011;25372;50.582;12.250;2022-09-13T19:22:57;1.33;;;1.02;;
39698;SDS011;25372;50.582;12.250;2022-09-13T19:33:19;1.88;;;0.77;;
39698;SDS011;25372;50.582;12.250;2022-09-13T19:43:42;0.88;;;0.82;;
39698;SDS011;25372;50.582;12.250;2022-09-13T19:54:06;1.42;;;0.90;;
39698;SDS011;25372;50.582;12.250;2022-09-13T20:04:31;1.48;;;0.90;;
39698;SDS011;25372;50.582;12.250;2022-09-13T20:14:52;1.20;;;0.82;;
39698;SDS011;25372;50.582;12.250;2022-09-13T20:25:14;2.92;;;1.50;;
39698;SDS011;25372;50.582;12.250;2022-09-13T20:35:35;2.58;;;1.20;;
39698;SDS011;25372;50.582;12.250;2022-09-13T20:45:58;2.25;;;1.42;;
39698;SDS011;25372;50.582;12.250;2022-09-13T20:56:19;1.25;;;1.15;;
39698;SDS011;25372;50.582;12.250;2022-09-13T21:06:43;1.67;;;1.50;;
39698;SDS011;25372;50.582;12.250;2022-09-13T21:27:39;1.83;;;1.10;;
39698;SDS011;25372;50.582;12.250;2022-09-13T21:38:03;1.92;;;1.70;;
39698;SDS011;25372;50.582;12.250;2022-09-13T21:48:25;2.40;;;1.33;;
39698;SDS011;25372;50.582;12.250;2022-09-13T21:58:48;4.72;;;2.05;;
39698;SDS011;25372;50.582;12.250;2022-09-13T22:09:12;2.25;;;1.40;;
39698;SDS011;25372;50.582;12.250;2022-09-13T22:19:33;2.45;;;1.63;;
39698;SDS011;25372;50.582;12.250;2022-09-13T22:29:55;1.13;;;0.95;;
39698;SDS011;25372;50.582;12.250;2022-09-13T22:40:16;2.13;;;1.80;;
39698;SDS011;25372;50.582;12.250;2022-09-13T22:50:38;2.38;;;1.55;;
39698;SDS011;25372;50.582;12.250;2022-09-13T23:01:03;3.25;;;1.67;;
39698;SDS011;25372;50.582;12.250;2022-09-13T23:11:27;2.47;;;1.67;;
39698;SDS011;25372;50.582;12.250;2022-09-13T23:21:50;1.92;;;1.75;;
39698;SDS011;25372;50.582;12.250;2022-09-13T23:32:13;2.80;;;1.52;;
39698;SDS011;25372;50.582;12.250;2022-09-13T23:42:34;1.95;;;1.52;;
39698;SDS011;25372;50.582;12.250;2022-09-13T23:52:56;2.20;;;1.60;;
